Time;durP1;ratioP1;P1;durP2;ratioP2;P2;SDS_P1;SDS_P2;PMS_P1;PMS_P2;Temp;Humidity;BMP_temperature;BMP_pressure;BME280_temperature;BME280_humidity;BME280_pressure;Samples;Min_cycle;Max_cycle;Signal;HPM_P1;HPM_P2
2023/01/18 00:01:04;;;;;;;19.35;15.73;;;5.50;99.90;;;;;;6214034;23;20059;-77
2023/01/18 00:03:32;;;;;;;19.90;16.90;;;5.50;99.90;;;;;;6187061;23;20009;-77
2023/01/18 00:06:00;;;;;;;21.60;18.90;;;5.50;99.90;;;;;;6213371;23;20373;-77
2023/01/18 00:08:28;;;;;;;24.85;20.38;;;5.50;99.90;;;;;;6186513;23;20385;-76
2023/01/18 00:11:08;;;;;;;26.40;20.67;;;5.50;99.90;;;;;;6212710;23;20000;-76
2023/01/18 00:13:34;;;;;;;26.65;20.58;;;5.60;99.90;;;;;;6186529;23;20004;-77
2023/01/18 00:16:15;;;;;;;28.00;21.60;;;5.60;99.90;;;;;;6185876;23;20027;-75
2023/01/18 00:18:41;;;;;;;25.88;21.90;;;5.60;99.90;;;;;;6212501;23;20684;-76
2023/01/18 00:21:09;;;;;;;26.65;20.73;;;5.60;99.90;;;;;;6213643;23;20005;-77
2023/01/18 00:23:35;;;;;;;25.42;20.95;;;5.60;99.90;;;;;;6186575;23;20491;-77
2023/01/18 00:26:09;;;;;;;23.98;21.00;;;5.60;99.90;;;;;;6186775;23;20009;-77
2023/01/18 00:28:35;;;;;;;27.25;21.63;;;5.60;99.90;;;;;;6186909;23;20058;-77
2023/01/18 00:31:01;;;;;;;30.05;23.38;;;5.60;99.90;;;;;;6186907;23;20009;-77
2023/01/18 00:33:27;;;;;;;31.00;23.90;;;5.60;99.90;;;;;;6213625;23;20309;-77
2023/01/18 00:36:01;;;;;;;32.67;25.13;;;5.60;99.90;;;;;;6216359;23;20001;-77
2023/01/18 00:38:27;;;;;;;32.35;25.65;;;5.60;99.90;;;;;;6216553;23;20424;-77
2023/01/18 00:40:53;;;;;;;36.38;27.45;;;5.60;99.90;;;;;;6189724;23;20012;-77
2023/01/18 00:43:37;;;;;;;33.97;27.20;;;5.60;99.90;;;;;;6216274;23;20428;-77
2023/01/18 00:46:08;;;;;;;35.83;28.13;;;5.50;99.90;;;;;;6189730;23;20005;-77
2023/01/18 00:48:34;;;;;;;34.20;25.40;;;5.50;99.90;;;;;;6216236;23;20054;-77
2023/01/18 00:51:00;;;;;;;32.15;25.58;;;5.50;99.90;;;;;;6216187;23;20321;-77
2023/01/18 00:53:26;;;;;;;36.35;28.70;;;5.50;99.90;;;;;;6189594;23;20000;-77
2023/01/18 00:55:51;;;;;;;36.17;28.15;;;5.50;99.90;;;;;;6189278;23;20008;-77
2023/01/18 00:58:17;;;;;;;34.33;27.17;;;5.50;99.90;;;;;;6189532;23;20081;-77
2023/01/18 01:00:43;;;;;;;35.00;28.05;;;5.50;99.90;;;;;;6215736;23;20001;-77
2023/01/18 01:03:09;;;;;;;33.45;27.02;;;5.50;99.90;;;;;;6215688;23;20058;-77
2023/01/18 01:08:22;;;;;;;35.28;27.45;;;5.50;99.90;;;;;;6215922;23;20019;-77
2023/01/18 01:10:51;;;;;;;35.72;27.67;;;5.60;99.90;;;;;;6215800;23;20011;-77
2023/01/18 01:27:10;;;;;;;31.77;26.13;;;5.60;99.90;;;;;;6215809;23;20059;-78
2023/01/18 01:29:36;;;;;;;34.90;26.98;;;5.60;99.90;;;;;;6215765;23;20005;-77
2023/01/18 01:32:02;;;;;;;34.38;27.10;;;5.60;99.90;;;;;;6215511;23;20374;-77
2023/01/18 01:34:29;;;;;;;42.03;30.80;;;5.60;99.90;;;;;;6215592;23;20000;-78
2023/01/18 01:36:55;;;;;;;36.80;29.52;;;5.60;99.90;;;;;;6215820;23;20072;-77
2023/01/18 01:39:21;;;;;;;37.45;29.60;;;5.60;99.90;;;;;;6189176;23;20005;-77
2023/01/18 01:41:50;;;;;;;38.60;29.40;;;5.60;99.90;;;;;;6188807;23;20025;-77
2023/01/18 01:44:26;;;;;;;35.33;29.13;;;5.60;99.90;;;;;;6189161;23;20035;-77
2023/01/18 01:47:03;;;;;;;40.78;29.98;;;5.60;99.90;;;;;;6189105;23;20405;-77
2023/01/18 01:49:45;;;;;;;40.13;30.63;;;5.60;99.90;;;;;;6188819;23;20008;-77
2023/01/18 01:52:18;;;;;;;35.67;29.02;;;5.50;99.90;;;;;;6215335;23;20033;-77
2023/01/18 01:54:48;;;;;;;;;;;5.50;99.90;;;;;;6216155;23;20494;-77
2023/01/18 01:57:31;;;;;;;31.75;24.05;;;5.50;99.90;;;;;;6189072;23;19974;-78
2023/01/18 02:00:04;;;;;;;33.65;26.05;;;5.30;99.90;;;;;;6215498;23;19997;-77
2023/01/18 02:02:33;;;;;;;35.28;27.20;;;5.30;99.90;;;;;;6215333;23;20503;-77
2023/01/18 02:05:01;;;;;;;40.85;30.58;;;5.30;99.90;;;;;;6215451;23;20009;-77
2023/01/18 02:07:27;;;;;;;40.22;31.50;;;5.30;99.90;;;;;;6215574;23;20004;-77
2023/01/18 02:09:55;;;;;;;44.80;32.30;;;5.30;99.90;;;;;;6215423;23;20055;-77
2023/01/18 02:12:22;;;;;;;40.88;31.42;;;5.30;99.90;;;;;;6188640;23;20382;-77
2023/01/18 02:14:47;;;;;;;40.92;32.00;;;5.40;99.90;;;;;;6215534;23;20123;-77
2023/01/18 02:17:30;;;;;;;38.15;29.85;;;5.30;99.90;;;;;;6215369;23;20035;-77
2023/01/18 02:20:44;;;;;;;41.17;30.55;;;5.40;99.90;;;;;;6188805;23;20000;-77
2023/01/18 02:23:24;;;;;;;37.67;29.38;;;5.40;99.90;;;;;;6156834;23;20087;-77
2023/01/18 02:26:15;;;;;;;35.40;27.98;;;5.40;99.90;;;;;;6215601;23;20011;-77
2023/01/18 02:28:45;;;;;;;44.35;30.42;;;5.30;99.90;;;;;;6215502;23;20433;-77
2023/01/18 02:31:18;;;;;;;41.05;29.73;;;5.30;99.90;;;;;;6215139;23;20333;-77
2023/01/18 02:34:15;;;;;;;33.90;27.63;;;5.20;99.90;;;;;;6215155;23;20033;-78
2023/01/18 02:36:53;;;;;;;40.65;30.23;;;5.10;99.90;;;;;;6157134;23;20004;-77
2023/01/18 02:39:43;;;;;;;44.90;32.35;;;5.10;99.90;;;;;;6215384;23;20008;-77
2023/01/18 02:47:53;;;;;;;43.72;32.05;;;5.10;99.90;;;;;;6215195;23;20066;-77
2023/01/18 02:50:24;;;;;;;48.50;35.53;;;5.10;99.90;;;;;;6214696;23;20011;-77
2023/01/18 02:52:52;;;;;;;41.88;31.20;;;5.10;99.90;;;;;;6215299;23;20055;-77
2023/01/18 02:55:23;;;;;;;41.45;30.65;;;5.10;99.90;;;;;;6215226;23;20075;-77
2023/01/18 02:57:50;;;;;;;37.83;28.95;;;5.10;99.90;;;;;;6188710;23;20336;-77
2023/01/18 03:00:17;;;;;;;32.13;24.65;;;5.10;99.90;;;;;;6215125;23;21248;-77
2023/01/18 03:02:47;;;;;;;27.73;22.63;;;5.10;99.90;;;;;;6215207;23;19997;-77
2023/01/18 03:05:13;;;;;;;29.58;22.13;;;5.10;99.90;;;;;;6215186;23;20007;-77
2023/01/18 03:08:08;;;;;;;27.67;22.23;;;5.10;99.90;;;;;;6215164;23;19997;-78
2023/01/18 03:10:43;;;;;;;31.58;22.88;;;5.10;99.90;;;;;;6202090;23;20008;-77
2023/01/18 03:13:29;;;;;;;27.38;21.25;;;5.10;99.90;;;;;;6215494;23;20325;-77
2023/01/18 03:16:19;;;;;;;26.60;21.92;;;5.00;99.90;;;;;;6217109;23;20369;-77
2023/01/18 03:19:00;;;;;;;35.92;27.13;;;5.00;99.90;;;;;;6216981;23;20004;-77
2023/01/18 03:21:36;;;;;;;33.35;25.38;;;4.90;99.90;;;;;;6217364;23;20082;-77
2023/01/18 03:24:06;;;;;;;28.75;23.42;;;4.90;99.90;;;;;;6217098;23;20005;-77
2023/01/18 03:26:37;;;;;;;30.30;22.92;;;4.90;99.90;;;;;;6217074;23;20011;-78
2023/01/18 03:35:06;;;;;;;35.47;25.25;;;4.90;99.90;;;;;;6216860;23;20059;-78
2023/01/18 03:37:37;;;;;;;31.05;25.05;;;4.90;99.90;;;;;;6216959;23;20008;-78
2023/01/18 03:40:14;;;;;;;26.75;21.63;;;4.90;99.90;;;;;;6216896;23;20000;-78
2023/01/18 03:42:52;;;;;;;28.10;22.30;;;4.90;99.90;;;;;;6190350;23;20066;-78
2023/01/18 03:45:36;;;;;;;29.83;24.23;;;4.90;99.90;;;;;;6190461;23;20004;-77
2023/01/18 03:48:03;;;;;;;31.60;24.83;;;4.80;99.90;;;;;;6216860;23;20032;-77
2023/01/18 03:50:41;;;;;;;32.83;25.67;;;4.80;99.90;;;;;;6189812;23;20467;-78
2023/01/18 03:53:13;;;;;;;36.72;25.65;;;4.80;99.90;;;;;;6216886;23;20509;-78
2023/01/18 03:56:08;;;;;;;31.15;23.38;;;4.70;99.90;;;;;;6190118;23;20008;-77
2023/01/18 03:58:35;;;;;;;27.70;20.85;;;4.80;99.90;;;;;;6203615;23;20001;-78
2023/01/18 04:01:02;;;;;;;25.13;19.45;;;4.70;99.90;;;;;;6189736;23;20012;-77
2023/01/18 04:03:31;;;;;;;21.50;17.95;;;4.70;99.90;;;;;;6189952;23;20035;-77
2023/01/18 04:05:57;;;;;;;24.13;18.67;;;4.50;99.90;;;;;;6216711;23;20015;-78
2023/01/18 04:08:23;;;;;;;18.40;16.27;;;4.50;99.90;;;;;;6216654;23;20027;-77
2023/01/18 04:10:49;;;;;;;15.38;12.90;;;4.50;99.90;;;;;;6216312;23;20432;-77
2023/01/18 04:13:14;;;;;;;14.63;11.95;;;4.50;99.90;;;;;;6216651;23;20433;-77
2023/01/18 04:15:40;;;;;;;12.40;11.05;;;4.60;99.90;;;;;;6216546;23;19988;-77
2023/01/18 04:18:06;;;;;;;11.77;10.50;;;4.60;99.90;;;;;;6189704;23;20020;-77
2023/01/18 04:20:31;;;;;;;10.02;9.00;;;4.60;99.90;;;;;;6216493;23;20004;-77
2023/01/18 04:22:57;;;;;;;10.13;9.23;;;4.60;99.90;;;;;;6216591;23;20028;-77
2023/01/18 04:25:23;;;;;;;9.48;8.68;;;4.60;99.90;;;;;;6216546;23;19997;-77
2023/01/18 04:27:48;;;;;;;8.93;8.15;;;4.50;99.90;;;;;;6189968;23;19993;-77
2023/01/18 04:30:14;;;;;;;8.52;7.78;;;4.50;99.90;;;;;;6216343;23;20007;-78
2023/01/18 04:32:41;;;;;;;7.78;7.15;;;4.40;99.90;;;;;;6216294;23;20004;-78
2023/01/18 04:35:08;;;;;;;7.45;6.75;;;4.40;99.90;;;;;;6216099;23;20004;-78
2023/01/18 04:37:36;;;;;;;6.93;6.22;;;4.40;99.90;;;;;;6216415;23;20340;-77
2023/01/18 04:40:03;;;;;;;6.95;6.35;;;4.50;99.90;;;;;;6216143;23;19997;-77
2023/01/18 04:42:29;;;;;;;7.38;6.63;;;4.40;99.90;;;;;;6216089;23;20091;-77
2023/01/18 04:44:55;;;;;;;7.20;6.60;;;4.40;99.90;;;;;;6189601;23;20043;-77
2023/01/18 04:47:21;;;;;;;7.20;6.50;;;4.40;99.90;;;;;;6189742;23;20424;-77
2023/01/18 04:49:50;;;;;;;8.00;7.30;;;4.40;99.90;;;;;;6215898;23;20039;-77
2023/01/18 04:52:15;;;;;;;7.90;7.20;;;4.40;99.90;;;;;;6215966;23;20025;-77
2023/01/18 04:54:42;;;;;;;8.48;7.63;;;4.40;99.90;;;;;;6216481;23;20031;-77
2023/01/18 04:57:08;;;;;;;8.70;7.90;;;4.30;99.90;;;;;;6189396;23;20001;-78
2023/01/18 04:59:33;;;;;;;10.43;9.40;;;4.30;99.90;;;;;;6215967;23;20007;-78
2023/01/18 05:01:59;;;;;;;11.48;10.32;;;4.20;99.90;;;;;;6216138;23;20005;-78
2023/01/18 05:04:24;;;;;;;14.07;10.98;;;4.10;99.90;;;;;;6215990;23;20100;-78
2023/01/18 05:06:50;;;;;;;12.82;11.52;;;4.10;99.90;;;;;;6189464;23;20444;-78
2023/01/18 05:09:16;;;;;;;10.68;9.60;;;4.10;99.90;;;;;;6189557;23;20005;-78
2023/01/18 05:11:42;;;;;;;14.45;11.40;;;4.00;99.90;;;;;;6189131;23;20031;-78
2023/01/18 05:14:08;;;;;;;12.50;10.95;;;3.90;99.90;;;;;;6189450;23;20007;-78
2023/01/18 05:16:34;;;;;;;16.52;12.55;;;3.80;99.90;;;;;;6189284;23;20008;-78
2023/01/18 05:19:00;;;;;;;14.65;12.45;;;3.80;99.90;;;;;;6189114;23;20100;-78
2023/01/18 05:21:27;;;;;;;10.88;9.77;;;3.70;99.90;;;;;;6215757;23;20447;-78
2023/01/18 05:23:53;;;;;;;9.43;8.60;;;3.70;99.90;;;;;;6215867;23;20077;-78
2023/01/18 05:26:21;;;;;;;10.23;9.23;;;3.70;99.90;;;;;;6188938;23;20016;-79
2023/01/18 05:28:48;;;;;;;10.32;9.32;;;3.70;99.90;;;;;;6215859;23;20008;-78
2023/01/18 05:31:15;;;;;;;9.45;8.55;;;3.70;99.90;;;;;;6189015;23;20344;-78
2023/01/18 05:33:40;;;;;;;9.18;8.27;;;3.70;99.90;;;;;;6188960;23;20007;-78
2023/01/18 05:36:07;;;;;;;7.90;7.20;;;3.70;99.90;;;;;;6215233;23;20004;-78
2023/01/18 05:38:33;;;;;;;8.07;7.28;;;3.70;99.90;;;;;;6189175;23;20008;-78
2023/01/18 05:40:59;;;;;;;8.15;7.45;;;3.70;99.90;;;;;;6188678;23;20024;-78
2023/01/18 05:43:26;;;;;;;7.82;7.00;;;3.70;99.90;;;;;;6188865;23;20004;-78
2023/01/18 05:45:54;;;;;;;7.53;6.82;;;3.70;99.90;;;;;;6215341;23;20004;-79
2023/01/18 05:48:21;;;;;;;7.30;6.70;;;3.70;99.90;;;;;;6188681;23;20008;-78
2023/01/18 05:50:47;;;;;;;8.10;7.30;;;3.70;99.90;;;;;;6215134;23;20080;-78
2023/01/18 05:53:16;;;;;;;8.20;7.40;;;3.70;99.90;;;;;;6215489;23;20000;-78
2023/01/18 05:55:42;;;;;;;6.57;6.07;;;3.70;99.90;;;;;;6189002;23;20333;-78
2023/01/18 05:58:08;;;;;;;6.50;6.00;;;3.70;99.90;;;;;;6215420;23;20004;-79
2023/01/18 06:00:34;;;;;;;7.23;6.30;;;3.70;99.90;;;;;;6187872;23;20004;-78
2023/01/18 06:03:00;;;;;;;7.80;7.10;;;3.70;99.90;;;;;;6188576;23;20028;-78
2023/01/18 06:05:27;;;;;;;7.63;6.93;;;3.70;99.90;;;;;;6215221;23;20340;-78
2023/01/18 06:07:53;;;;;;;7.57;6.87;;;3.70;99.90;;;;;;6188410;23;20131;-78
2023/01/18 06:10:18;;;;;;;6.87;6.27;;;3.70;99.90;;;;;;6215023;23;19997;-78
2023/01/18 06:12:44;;;;;;;7.75;7.05;;;3.70;99.90;;;;;;6188614;23;20079;-78
2023/01/18 06:15:11;;;;;;;7.05;6.45;;;3.70;99.90;;;;;;6215322;23;20001;-79
2023/01/18 06:17:38;;;;;;;6.85;6.35;;;3.70;99.90;;;;;;6215325;23;20000;-79
2023/01/18 06:20:05;;;;;;;35.88;32.65;;;3.70;99.90;;;;;;6215058;23;20441;-79
2023/01/18 06:22:31;;;;;;;14.90;13.70;;;3.70;99.90;;;;;;6215342;23;20001;-79
2023/01/18 06:24:56;;;;;;;10.60;9.65;;;3.60;99.90;;;;;;6188735;23;20027;-79
2023/01/18 06:27:22;;;;;;;10.00;9.07;;;3.70;99.90;;;;;;6188632;23;20011;-79
2023/01/18 06:29:49;;;;;;;12.15;10.15;;;3.70;99.90;;;;;;6215184;23;20008;-79
2023/01/18 06:32:14;;;;;;;10.38;9.30;;;3.70;99.90;;;;;;6215069;23;20005;-79
2023/01/18 06:34:40;;;;;;;8.75;7.95;;;3.70;99.90;;;;;;6215096;23;20110;-79
2023/01/18 06:37:07;;;;;;;9.75;8.75;;;3.70;99.90;;;;;;6188514;23;20333;-79
2023/01/18 06:39:32;;;;;;;8.38;7.57;;;3.70;99.90;;;;;;6188520;23;20001;-79
2023/01/18 06:41:58;;;;;;;8.50;7.80;;;3.60;99.90;;;;;;6188210;23;20075;-78
2023/01/18 06:44:24;;;;;;;9.48;8.52;;;3.60;99.90;;;;;;6188739;23;20009;-78
2023/01/18 06:46:50;;;;;;;9.43;8.43;;;3.60;99.90;;;;;;6188687;23;20059;-78
2023/01/18 06:49:15;;;;;;;9.02;8.10;;;3.60;99.90;;;;;;6190850;23;20453;-78
2023/01/18 06:51:41;;;;;;;9.07;8.17;;;3.70;99.90;;;;;;6217190;23;20080;-78
2023/01/18 06:54:07;;;;;;;8.98;8.13;;;3.70;99.90;;;;;;6190505;23;20063;-78
2023/01/18 06:56:34;;;;;;;8.67;7.87;;;3.70;99.90;;;;;;6217217;23;20000;-78
2023/01/18 06:58:59;;;;;;;8.20;6.93;;;3.70;99.90;;;;;;6217482;23;20000;-78
2023/01/18 07:01:26;;;;;;;7.75;6.95;;;3.70;99.90;;;;;;6217157;23;20035;-78
2023/01/18 07:03:52;;;;;;;6.90;6.30;;;3.70;99.90;;;;;;6216533;23;20000;-78
2023/01/18 07:06:17;;;;;;;6.63;6.03;;;3.70;99.90;;;;;;6217120;23;20039;-78
2023/01/18 07:08:43;;;;;;;6.53;5.93;;;3.80;99.90;;;;;;6190488;23;20011;-78
2023/01/18 07:11:11;;;;;;;7.00;6.30;;;3.80;99.90;;;;;;6216908;23;20521;-78
2023/01/18 07:13:42;;;;;;;6.27;5.77;;;3.70;99.90;;;;;;6190522;23;20004;-78
2023/01/18 07:16:16;;;;;;;6.18;5.68;;;3.70;99.90;;;;;;6217166;23;20001;-78
2023/01/18 07:18:44;;;;;;;6.73;6.07;;;3.70;99.90;;;;;;6190533;23;20000;-78
2023/01/18 07:21:10;;;;;;;7.18;6.47;;;3.70;99.90;;;;;;6217105;23;20034;-78
2023/01/18 07:23:38;;;;;;;9.10;8.17;;;3.70;99.90;;;;;;6217194;23;20011;-78
2023/01/18 07:26:05;;;;;;;8.13;7.32;;;3.70;99.90;;;;;;6216966;23;20001;-78
2023/01/18 07:28:31;;;;;;;7.80;7.10;;;3.70;99.90;;;;;;6190322;23;20008;-78
2023/01/18 07:30:57;;;;;;;9.43;7.80;;;3.80;99.90;;;;;;6190128;23;20042;-78
2023/01/18 07:33:24;;;;;;;8.50;7.70;;;3.70;99.90;;;;;;6216995;23;20000;-78
2023/01/18 07:35:55;;;;;;;9.30;8.40;;;3.80;99.90;;;;;;6189702;23;20001;-78
2023/01/18 07:38:31;;;;;;;8.10;7.40;;;3.70;99.90;;;;;;6189813;23;20004;-78
2023/01/18 07:41:15;;;;;;;7.27;6.57;;;3.70;99.90;;;;;;6188558;23;20021;-77
2023/01/18 07:43:43;;;;;;;7.80;5.97;;;3.80;99.90;;;;;;6217161;23;20075;-77
2023/01/18 07:46:15;;;;;;;6.65;6.15;;;3.80;99.90;;;;;;6216901;23;20051;-77
2023/01/18 07:48:41;;;;;;;6.45;5.93;;;3.80;99.90;;;;;;6216851;23;20730;-77
2023/01/18 07:51:09;;;;;;;7.32;6.38;;;3.70;99.90;;;;;;6216619;23;20000;-77
2023/01/18 07:53:36;;;;;;;8.90;7.28;;;3.70;99.90;;;;;;6190161;23;20004;-77
2023/01/18 07:56:04;;;;;;;7.18;6.38;;;3.70;99.90;;;;;;6190279;23;20028;-77
2023/01/18 07:58:30;;;;;;;7.70;7.00;;;3.70;99.90;;;;;;6189767;23;20001;-78
2023/01/18 08:01:05;;;;;;;9.20;8.23;;;3.80;99.90;;;;;;6216488;23;20003;-77
2023/01/18 08:03:32;;;;;;;10.23;8.07;;;3.80;99.90;;;;;;6216460;23;20004;-77
2023/01/18 08:05:59;;;;;;;10.02;8.88;;;3.80;99.90;;;;;;6216816;23;20008;-77
2023/01/18 08:08:26;;;;;;;8.07;7.10;;;3.80;99.90;;;;;;6216621;23;20071;-77
2023/01/18 08:10:57;;;;;;;8.57;7.77;;;3.80;99.90;;;;;;6216493;23;20502;-77
2023/01/18 08:13:24;;;;;;;9.80;8.77;;;3.80;99.90;;;;;;6216712;23;19997;-77
2023/01/18 08:15:50;;;;;;;13.85;11.15;;;3.80;99.90;;;;;;6190109;23;20321;-77
2023/01/18 08:18:15;;;;;;;10.98;9.82;;;3.80;99.90;;;;;;6216394;23;20058;-77
2023/01/18 08:20:46;;;;;;;10.50;9.40;;;3.80;99.90;;;;;;6216254;23;20001;-77
2023/01/18 08:23:12;;;;;;;10.88;8.38;;;3.80;99.90;;;;;;6216355;23;20001;-77
2023/01/18 08:25:37;;;;;;;9.68;8.68;;;3.80;99.90;;;;;;6189867;23;20531;-77
2023/01/18 08:28:03;;;;;;;10.47;9.47;;;3.80;99.90;;;;;;6216503;23;20000;-77
2023/01/18 08:30:33;;;;;;;13.00;11.43;;;3.90;99.90;;;;;;6216460;23;20031;-77
2023/01/18 08:33:00;;;;;;;10.98;9.88;;;3.90;99.90;;;;;;6189677;23;20092;-77
2023/01/18 08:35:28;;;;;;;14.13;11.68;;;3.90;99.90;;;;;;6216059;23;20165;-77
2023/01/18 08:37:54;;;;;;;14.38;11.20;;;3.90;99.90;;;;;;6189962;23;20087;-78
2023/01/18 08:40:22;;;;;;;12.93;11.53;;;4.00;99.90;;;;;;6215887;23;20007;-78
2023/01/18 08:42:48;;;;;;;13.50;10.65;;;4.00;99.90;;;;;;6216359;23;20011;-78
2023/01/18 08:45:14;;;;;;;14.85;11.73;;;4.00;99.90;;;;;;6216328;23;20079;-78
2023/01/18 08:47:41;;;;;;;15.13;11.95;;;4.10;99.90;;;;;;6216254;23;20035;-78
2023/01/18 08:50:08;;;;;;;16.35;12.20;;;4.20;99.90;;;;;;6215841;23;20008;-78
2023/01/18 08:52:35;;;;;;;12.95;11.40;;;4.20;99.90;;;;;;6189435;23;20008;-78
2023/01/18 08:55:05;;;;;;;11.52;10.32;;;4.20;99.90;;;;;;6189146;23;20091;-77
2023/01/18 08:57:31;;;;;;;11.13;10.00;;;4.30;99.90;;;;;;6216069;23;20005;-77
2023/01/18 08:59:57;;;;;;;11.73;10.52;;;4.40;99.90;;;;;;6215911;23;20409;-77
2023/01/18 09:02:26;;;;;;;10.82;9.82;;;4.50;99.90;;;;;;6216321;23;20006;-77
2023/01/18 09:04:52;;;;;;;10.77;9.65;;;4.50;99.90;;;;;;6216070;23;20781;-77
2023/01/18 09:07:18;;;;;;;14.20;12.07;;;4.60;99.90;;;;;;6216101;23;20039;-77
2023/01/18 09:09:44;;;;;;;16.95;14.32;;;4.60;99.90;;;;;;6215861;23;20054;-77
2023/01/18 09:12:11;;;;;;;40.60;29.48;;;4.60;99.90;;;;;;6188799;23;20009;-77
2023/01/18 09:14:37;;;;;;;37.17;28.02;;;4.60;99.90;;;;;;6189542;23;20030;-77
2023/01/18 09:17:03;;;;;;;42.00;29.42;;;4.40;99.90;;;;;;6189443;23;20012;-77
2023/01/18 09:19:29;;;;;;;45.90;32.33;;;4.40;99.90;;;;;;6189049;23;20001;-77
2023/01/18 09:21:54;;;;;;;49.40;33.30;;;4.30;99.90;;;;;;6215858;23;20000;-77
2023/01/18 09:24:20;;;;;;;53.95;36.22;;;4.20;99.90;;;;;;6216071;23;20009;-77
2023/01/18 09:26:49;;;;;;;56.72;38.03;;;4.20;99.90;;;;;;6215911;23;20009;-78
2023/01/18 09:29:15;;;;;;;65.78;41.20;;;4.30;99.90;;;;;;6215860;23;20000;-77
2023/01/18 09:31:41;;;;;;;59.00;40.08;;;4.30;99.90;;;;;;6215721;23;20004;-77
2023/01/18 09:34:06;;;;;;;58.42;39.78;;;4.20;99.90;;;;;;6188968;23;20012;-77
2023/01/18 09:36:32;;;;;;;61.30;39.63;;;4.20;99.90;;;;;;6215761;23;20379;-77
2023/01/18 09:38:58;;;;;;;73.68;47.72;;;4.30;99.90;;;;;;6215461;23;20421;-77
2023/01/18 09:41:48;;;;;;;68.32;42.33;;;4.40;99.90;;;;;;6215447;23;20389;-78
2023/01/18 09:44:22;;;;;;;58.20;38.90;;;4.40;99.90;;;;;;6215844;23;20000;-77
2023/01/18 09:47:17;;;;;;;62.88;39.30;;;4.40;99.90;;;;;;6215882;23;20341;-77
2023/01/18 09:49:51;;;;;;;58.83;38.22;;;4.50;99.90;;;;;;6175781;23;20012;-77
2023/01/18 09:52:18;;;;;;;59.17;38.67;;;4.50;99.90;;;;;;6188797;23;20015;-77
2023/01/18 09:54:54;;;;;;;58.75;38.78;;;4.60;99.90;;;;;;6215437;23;20006;-77
2023/01/18 09:57:48;;;;;;;58.53;39.08;;;4.50;99.90;;;;;;6215472;23;19997;-77
2023/01/18 10:00:21;;;;;;;65.30;40.60;;;4.50;99.90;;;;;;6188981;23;20007;-77
2023/01/18 10:02:52;;;;;;;61.22;37.95;;;4.50;99.90;;;;;;6188999;23;20091;-77
2023/01/18 10:05:22;;;;;;;64.78;39.70;;;4.60;99.90;;;;;;6188850;23;20012;-77
2023/01/18 10:08:02;;;;;;;63.45;39.40;;;4.60;99.90;;;;;;6215544;23;20005;-77
2023/01/18 10:10:54;;;;;;;65.75;39.72;;;4.60;99.90;;;;;;6215440;23;20083;-77
2023/01/18 10:13:49;;;;;;;60.95;39.92;;;4.70;99.90;;;;;;6188772;23;20009;-77
2023/01/18 10:16:15;;;;;;;61.17;38.90;;;4.70;99.90;;;;;;6215355;23;20496;-77
2023/01/18 10:18:46;;;;;;;65.30;41.97;;;4.70;99.90;;;;;;6215318;23;20036;-77
2023/01/18 10:21:34;;;;;;;61.72;40.38;;;4.80;99.90;;;;;;6215658;23;20413;-77
2023/01/18 10:24:25;;;;;;;66.20;41.53;;;4.80;99.90;;;;;;6215158;23;20005;-77
2023/01/18 10:26:56;;;;;;;66.88;40.92;;;4.90;99.90;;;;;;6188897;23;20020;-77
2023/01/18 10:29:22;;;;;;;67.10;40.55;;;4.90;99.90;;;;;;6215480;23;20001;-77
2023/01/18 10:32:01;;;;;;;65.85;40.35;;;4.90;99.90;;;;;;6215317;23;20005;-77
2023/01/18 10:34:36;;;;;;;67.18;41.38;;;4.90;99.90;;;;;;6215143;23;20003;-77
2023/01/18 10:37:28;;;;;;;70.40;44.60;;;4.90;99.90;;;;;;6215350;23;20004;-77
2023/01/18 10:40:00;;;;;;;66.65;40.60;;;4.90;99.90;;;;;;6215254;23;19996;-77
2023/01/18 10:42:29;;;;;;;60.60;40.03;;;4.90;99.90;;;;;;6215129;23;20341;-77
2023/01/18 10:44:56;;;;;;;60.60;38.60;;;4.90;99.90;;;;;;6188795;23;20111;-77
2023/01/18 10:47:22;;;;;;;65.03;40.85;;;4.90;99.90;;;;;;6215020;23;20008;-77
2023/01/18 10:49:49;;;;;;;65.03;41.55;;;4.90;99.90;;;;;;6214921;23;19997;-77
2023/01/18 10:52:24;;;;;;;67.00;43.03;;;4.90;99.90;;;;;;6214837;23;20443;-77
2023/01/18 10:55:17;;;;;;;69.32;44.80;;;4.90;99.90;;;;;;6215098;23;19997;-77
2023/01/18 10:57:50;;;;;;;60.38;38.95;;;5.00;99.90;;;;;;6196865;23;20039;-77
2023/01/18 11:00:21;;;;;;;55.20;36.83;;;5.00;99.90;;;;;;6188362;23;20009;-77
2023/01/18 11:02:50;;;;;;;54.13;35.33;;;5.10;99.90;;;;;;6188417;23;20459;-77
2023/01/18 11:05:29;;;;;;;49.22;33.70;;;5.20;99.90;;;;;;6215135;23;20452;-77
2023/01/18 11:08:09;;;;;;;45.95;31.60;;;5.20;99.90;;;;;;6215177;23;20004;-77
2023/01/18 11:10:36;;;;;;;49.85;31.58;;;5.30;99.90;;;;;;6214875;23;20005;-77
2023/01/18 11:13:21;;;;;;;44.35;30.13;;;5.30;99.90;;;;;;6188768;23;20440;-77
2023/01/18 11:15:47;;;;;;;42.40;28.35;;;5.40;99.90;;;;;;6188544;23;20005;-77
2023/01/18 11:18:12;;;;;;;37.53;26.50;;;5.50;99.90;;;;;;6188569;23;20313;-77
2023/01/18 11:20:38;;;;;;;32.38;24.30;;;5.70;99.90;;;;;;6188166;23;20075;-77
2023/01/18 11:23:13;;;;;;;32.05;24.45;;;5.80;99.90;;;;;;6215236;23;20468;-77
2023/01/18 11:25:50;;;;;;;27.63;21.63;;;5.90;99.90;;;;;;6215002;23;20000;-77
2023/01/18 11:28:17;;;;;;;31.45;23.25;;;6.00;99.90;;;;;;6215263;23;20056;-77
2023/01/18 11:31:03;;;;;;;25.77;20.42;;;6.10;99.90;;;;;;6188197;23;20001;-77
2023/01/18 11:33:29;;;;;;;21.90;16.95;;;6.20;99.90;;;;;;6214994;23;20482;-77
2023/01/18 11:36:01;;;;;;;25.40;18.90;;;6.30;99.90;;;;;;6216659;23;20433;-77
2023/01/18 11:38:33;;;;;;;32.83;23.00;;;6.40;99.90;;;;;;6217071;23;20465;-77
2023/01/18 11:41:19;;;;;;;35.95;26.02;;;6.50;99.90;;;;;;6216747;23;20027;-77
2023/01/18 11:44:05;;;;;;;36.70;26.98;;;6.50;99.90;;;;;;6217176;23;20058;-77
2023/01/18 11:46:48;;;;;;;43.17;30.95;;;6.50;99.90;;;;;;6217149;23;20000;-77
2023/01/18 11:49:30;;;;;;;44.65;30.98;;;6.40;99.90;;;;;;6189789;23;20005;-77
2023/01/18 11:52:09;;;;;;;48.97;32.58;;;6.30;99.90;;;;;;6216630;23;20036;-78
2023/01/18 11:54:52;;;;;;;48.55;35.28;;;6.20;99.90;;;;;;6190064;23;20011;-77
2023/01/18 11:57:18;;;;;;;49.35;31.27;;;6.30;99.90;;;;;;6190060;23;20054;-77
2023/01/18 11:59:45;;;;;;;44.10;30.95;;;6.30;99.90;;;;;;6216496;23;20120;-77
2023/01/18 12:02:32;;;;;;;41.50;30.08;;;6.40;99.90;;;;;;6216619;23;20376;-77
2023/01/18 12:05:24;;;;;;;42.15;29.58;;;6.50;99.90;;;;;;6216619;23;20011;-77
2023/01/18 12:08:12;;;;;;;45.37;30.70;;;6.60;99.90;;;;;;6189916;23;20008;-77
2023/01/18 12:10:48;;;;;;;41.75;30.25;;;6.60;99.90;;;;;;6216243;23;20220;-77
2023/01/18 12:13:20;;;;;;;48.38;32.90;;;6.50;99.90;;;;;;6189993;23;20036;-77
2023/01/18 12:16:14;;;;;;;44.65;31.55;;;6.50;99.90;;;;;;6216661;23;19997;-77
2023/01/18 12:18:42;;;;;;;47.90;31.63;;;6.50;99.90;;;;;;6189667;23;20078;-77
2023/01/18 12:21:15;;;;;;;42.33;30.42;;;6.50;99.90;;;;;;6216201;23;20008;-77
2023/01/18 12:24:01;;;;;;;46.20;32.00;;;6.50;99.90;;;;;;6216376;23;20005;-77
2023/01/18 12:26:58;;;;;;;47.33;32.83;;;6.50;99.90;;;;;;6216610;23;20001;-77
2023/01/18 12:29:32;;;;;;;45.90;31.38;;;6.50;99.90;;;;;;6216382;23;20007;-77
2023/01/18 12:32:10;;;;;;;53.90;34.35;;;6.60;99.90;;;;;;6189702;23;20087;-77
2023/01/18 12:35:03;;;;;;;51.15;35.28;;;6.70;99.90;;;;;;6189471;23;20395;-77
2023/01/18 12:37:58;;;;;;;47.90;32.83;;;6.70;99.90;;;;;;6189656;23;20005;-77
2023/01/18 12:40:39;;;;;;;52.20;33.42;;;6.80;99.90;;;;;;6216498;23;20027;-77
2023/01/18 12:43:52;;;;;;;55.17;36.30;;;6.80;99.90;;;;;;6216277;23;20500;-77
2023/01/18 12:46:26;;;;;;;51.30;34.40;;;6.90;99.90;;;;;;6084102;23;20010;-78
2023/01/18 12:49:17;;;;;;;48.13;33.10;;;6.90;99.90;;;;;;6189832;23;20328;-77
2023/01/18 12:52:03;;;;;;;50.92;34.22;;;6.90;99.90;;;;;;6216099;23;20007;-77
2023/01/18 12:54:41;;;;;;;48.38;32.45;;;6.90;99.90;;;;;;6215937;23;20309;-78
2023/01/18 12:57:07;;;;;;;52.00;35.17;;;6.90;99.90;;;;;;6216209;23;19996;-77
2023/01/18 12:59:41;;;;;;;53.72;34.78;;;6.80;99.90;;;;;;6215874;23;20000;-77
2023/01/18 13:02:34;;;;;;;49.97;32.97;;;6.80;99.90;;;;;;6189748;23;20038;-77
2023/01/18 13:05:09;;;;;;;51.00;32.38;;;6.90;99.90;;;;;;6189086;23;20436;-77
2023/01/18 13:07:38;;;;;;;44.60;31.52;;;6.90;99.90;;;;;;6189515;23;20050;-77
2023/01/18 13:10:11;;;;;;;51.00;33.55;;;6.90;99.90;;;;;;6189383;23;20011;-77
2023/01/18 13:12:37;;;;;;;47.38;32.53;;;6.90;99.90;;;;;;6215888;23;20004;-78
2023/01/18 13:15:14;;;;;;;51.65;33.40;;;6.90;99.90;;;;;;6215889;23;20432;-78
2023/01/18 13:18:06;;;;;;;48.40;31.58;;;6.90;99.90;;;;;;6189552;23;20004;-78
2023/01/18 13:20:59;;;;;;;47.78;31.58;;;6.90;99.90;;;;;;6188964;23;20007;-77
2023/01/18 13:23:54;;;;;;;54.65;34.42;;;6.80;99.90;;;;;;6215654;23;20075;-78
2023/01/18 13:26:29;;;;;;;53.05;35.35;;;6.80;99.90;;;;;;6208213;23;20004;-78
2023/01/18 13:29:21;;;;;;;46.58;32.30;;;6.80;99.90;;;;;;6215597;23;20004;-78
2023/01/18 13:31:47;;;;;;;52.20;33.10;;;6.90;99.90;;;;;;6215736;23;20004;-77
2023/01/18 13:34:34;;;;;;;51.63;34.60;;;6.90;99.90;;;;;;6215570;23;19997;-77